Time;durP1;ratioP1;P1;durP2;ratioP2;P2;SDS_P1;SDS_P2;PMS_P1;PMS_P2;Temp;Humidity;BMP_temperature;BMP_pressure;BME280_temperature;BME280_humidity;BME280_pressure;Samples;Min_cycle;Max_cycle;Signal;HPM_P1;HPM_P2
2024/04/07 00:00:51;;;;;;;0.68;0.63;;;17.50;58.50;;;;;;6132860;23;20156;-81
2024/04/07 00:03:20;;;;;;;1.00;0.80;;;17.50;58.60;;;;;;6133391;23;20151;-81
2024/04/07 00:05:54;;;;;;;0.82;0.60;;;17.40;58.50;;;;;;6157511;23;20209;-81
2024/04/07 00:08:20;;;;;;;0.73;0.60;;;17.50;58.70;;;;;;6133171;23;20571;-81
2024/04/07 00:10:46;;;;;;;0.77;0.77;;;17.40;58.80;;;;;;6133467;23;20139;-81
2024/04/07 00:13:13;;;;;;;0.63;0.60;;;17.40;58.80;;;;;;6108093;23;20167;-81
2024/04/07 00:15:40;;;;;;;0.60;0.60;;;17.40;58.90;;;;;;6083052;23;20618;-81
2024/04/07 00:18:07;;;;;;;0.85;0.75;;;17.40;58.80;;;;;;6108717;23;20214;-81
2024/04/07 00:20:36;;;;;;;0.80;0.80;;;17.50;58.70;;;;;;6133676;23;20154;-81
2024/04/07 00:23:04;;;;;;;0.60;0.60;;;17.50;58.80;;;;;;6109030;23;20250;-81
2024/04/07 00:25:30;;;;;;;0.70;0.70;;;17.50;58.70;;;;;;6107935;23;20246;-81
2024/04/07 00:27:57;;;;;;;0.75;0.75;;;17.50;58.50;;;;;;6158139;23;20135;-81
2024/04/07 00:30:23;;;;;;;0.65;0.60;;;17.40;58.70;;;;;;6107316;23;20618;-82
2024/04/07 00:32:49;;;;;;;0.60;0.60;;;17.40;58.70;;;;;;6108501;23;20151;-81
2024/04/07 00:35:15;;;;;;;0.70;0.60;;;17.40;58.90;;;;;;6132916;23;20139;-81
2024/04/07 00:37:40;;;;;;;0.82;0.65;;;17.40;58.70;;;;;;6108499;23;20155;-81
2024/04/07 00:40:07;;;;;;;0.68;0.60;;;17.40;58.80;;;;;;6157338;23;20552;-80
2024/04/07 00:42:35;;;;;;;0.88;0.73;;;17.40;58.70;;;;;;6108255;23;20161;-81
2024/04/07 00:45:00;;;;;;;0.70;0.70;;;17.40;58.80;;;;;;6108263;23;20210;-81
2024/04/07 00:47:27;;;;;;;0.73;0.73;;;17.40;59.00;;;;;;6108837;23;20159;-81
2024/04/07 00:49:53;;;;;;;1.58;0.70;;;17.40;58.90;;;;;;6133159;23;20209;-81
2024/04/07 00:52:19;;;;;;;0.80;0.80;;;17.30;58.90;;;;;;6108740;23;20591;-80
2024/04/07 00:54:44;;;;;;;1.13;0.90;;;17.40;58.80;;;;;;6132351;23;20140;-81
2024/04/07 00:57:12;;;;;;;0.70;0.70;;;17.30;58.90;;;;;;6132559;23;20576;-81
2024/04/07 00:59:37;;;;;;;0.60;0.60;;;17.30;59.00;;;;;;6133155;23;20143;-81
2024/04/07 01:02:04;;;;;;;0.80;0.70;;;17.30;58.80;;;;;;6132756;23;20474;-81
2024/04/07 01:04:31;;;;;;;0.70;0.70;;;17.30;58.90;;;;;;6156969;23;20146;-81
2024/04/07 01:06:58;;;;;;;0.73;0.73;;;17.30;58.90;;;;;;6132847;23;20169;-81
2024/04/07 01:09:25;;;;;;;0.73;0.60;;;17.30;58.90;;;;;;6132656;23;20136;-81
2024/04/07 01:11:51;;;;;;;0.77;0.60;;;17.30;58.90;;;;;;6157363;23;20143;-81
2024/04/07 01:14:16;;;;;;;0.85;0.80;;;17.30;58.80;;;;;;6108443;23;20151;-81
2024/04/07 01:16:42;;;;;;;1.70;0.77;;;17.30;58.90;;;;;;6132418;23;20171;-80
2024/04/07 01:19:08;;;;;;;0.70;0.70;;;17.40;58.90;;;;;;6131934;23;20730;-81
2024/04/07 01:21:34;;;;;;;1.10;0.80;;;17.30;58.90;;;;;;6132260;23;20479;-80
2024/04/07 01:24:02;;;;;;;1.02;0.88;;;17.30;58.90;;;;;;6157838;23;20206;-81
2024/04/07 01:26:28;;;;;;;0.85;0.82;;;17.30;58.90;;;;;;6108248;23;20499;-81
2024/04/07 01:28:54;;;;;;;0.70;0.70;;;17.30;58.90;;;;;;6132436;23;20139;-81
2024/04/07 01:31:21;;;;;;;1.00;0.90;;;17.30;58.90;;;;;;6131934;23;20527;-81
2024/04/07 01:33:47;;;;;;;1.08;0.98;;;17.30;58.90;;;;;;6158953;23;20151;-81
2024/04/07 01:36:14;;;;;;;1.30;0.90;;;17.20;58.90;;;;;;6132574;23;20157;-81
2024/04/07 01:38:40;;;;;;;0.90;0.90;;;17.30;58.90;;;;;;6107902;23;20163;-81
2024/04/07 01:41:06;;;;;;;0.90;0.80;;;17.30;58.90;;;;;;6108264;23;20155;-80
2024/04/07 01:43:31;;;;;;;1.40;0.80;;;17.30;58.90;;;;;;6156840;23;20151;-81
2024/04/07 01:45:58;;;;;;;0.70;0.70;;;17.30;58.90;;;;;;6132276;23;20657;-81
2024/04/07 01:48:24;;;;;;;0.82;0.80;;;17.30;58.90;;;;;;6157252;23;20136;-81
2024/04/07 01:50:50;;;;;;;0.95;0.77;;;17.30;58.80;;;;;;6132109;23;20630;-82
2024/04/07 01:53:16;;;;;;;0.95;0.85;;;17.30;59.00;;;;;;6132141;23;20515;-81
2024/04/07 01:55:42;;;;;;;1.25;1.00;;;17.30;59.00;;;;;;6131661;23;20186;-81
2024/04/07 01:58:08;;;;;;;1.17;1.00;;;17.30;58.90;;;;;;6132387;23;20155;-81
2024/04/07 02:00:34;;;;;;;1.02;0.90;;;17.30;59.00;;;;;;6107612;23;20579;-81
2024/04/07 02:03:00;;;;;;;1.05;0.95;;;17.30;58.90;;;;;;6156836;23;20448;-81
2024/04/07 02:05:26;;;;;;;0.95;0.80;;;17.30;59.00;;;;;;6107797;23;20183;-81
2024/04/07 02:07:52;;;;;;;0.82;0.80;;;17.30;58.90;;;;;;6132317;23;20587;-81
2024/04/07 02:10:19;;;;;;;0.80;0.70;;;17.20;58.90;;;;;;6132404;23;20138;-81
2024/04/07 02:12:44;;;;;;;0.82;0.82;;;17.30;58.90;;;;;;6156686;23;20127;-81
2024/04/07 02:15:13;;;;;;;1.75;1.02;;;17.30;59.00;;;;;;6156306;23;20143;-81
2024/04/07 02:17:44;;;;;;;1.20;0.85;;;17.30;58.90;;;;;;6155650;23;20143;-81
2024/04/07 02:20:10;;;;;;;1.00;0.90;;;17.30;59.00;;;;;;6107272;23;20187;-81
2024/04/07 02:22:37;;;;;;;1.05;0.90;;;17.20;58.90;;;;;;6156750;23;20575;-81
2024/04/07 02:25:04;;;;;;;1.02;0.93;;;17.20;59.00;;;;;;6132575;23;20178;-81
2024/04/07 02:27:30;;;;;;;1.00;0.90;;;17.20;59.10;;;;;;6156565;23;20128;-81
2024/04/07 02:29:56;;;;;;;1.60;1.15;;;17.20;59.10;;;;;;6156492;23;20132;-81
2024/04/07 02:32:22;;;;;;;1.05;0.82;;;17.10;59.00;;;;;;6106998;23;20163;-81
2024/04/07 02:34:48;;;;;;;1.35;0.98;;;17.30;58.60;;;;;;6107504;23;20159;-81
2024/04/07 02:37:14;;;;;;;0.75;0.73;;;17.30;58.90;;;;;;6131702;23;20439;-81
2024/04/07 02:39:42;;;;;;;1.23;0.80;;;17.20;58.80;;;;;;6131506;23;20166;-81
2024/04/07 02:42:07;;;;;;;1.10;1.00;;;17.20;58.80;;;;;;6155723;23;20211;-81
2024/04/07 02:49:53;;;;;;;1.23;1.08;;;17.30;58.90;;;;;;6134678;23;20143;-80
2024/04/07 02:52:20;;;;;;;0.80;0.80;;;17.20;59.00;;;;;;6107328;23;20158;-81
2024/04/07 02:54:46;;;;;;;1.10;1.00;;;17.20;59.00;;;;;;6130221;23;20210;-81
2024/04/07 02:57:12;;;;;;;1.33;1.10;;;17.20;59.00;;;;;;6131423;23;20139;-81
2024/04/07 02:59:40;;;;;;;1.10;0.85;;;17.20;58.90;;;;;;6131333;23;20178;-81
2024/04/07 03:02:10;;;;;;;1.10;1.00;;;17.20;58.90;;;;;;6131412;23;20155;-82
2024/04/07 03:04:36;;;;;;;1.13;1.00;;;17.20;58.80;;;;;;6105808;23;20183;-81
2024/04/07 03:07:03;;;;;;;1.20;1.10;;;17.20;58.80;;;;;;6106825;23;20155;-81
2024/04/07 03:09:28;;;;;;;1.20;0.90;;;17.20;59.00;;;;;;6131736;23;20136;-81
2024/04/07 03:11:56;;;;;;;1.80;0.93;;;17.30;59.10;;;;;;6131352;23;20135;-81
2024/04/07 03:14:23;;;;;;;1.25;1.00;;;17.20;58.90;;;;;;6106057;23;20159;-81
2024/04/07 03:16:50;;;;;;;1.15;0.90;;;17.20;59.00;;;;;;6081730;23;20553;-81
2024/04/07 03:19:16;;;;;;;1.50;1.20;;;17.20;59.00;;;;;;6106919;23;20152;-81
2024/04/07 03:21:42;;;;;;;1.52;1.00;;;17.20;59.10;;;;;;6131896;23;20174;-80
2024/04/07 03:24:08;;;;;;;1.10;0.90;;;17.20;59.00;;;;;;6131201;23;20471;-81
2024/04/07 03:26:34;;;;;;;2.10;0.88;;;17.20;59.00;;;;;;6131130;23;20258;-80
2024/04/07 03:29:01;;;;;;;1.02;0.93;;;17.20;59.10;;;;;;6157778;23;20147;-81
2024/04/07 03:31:26;;;;;;;1.00;0.90;;;17.20;59.00;;;;;;6159208;23;20183;-80
2024/04/07 03:33:52;;;;;;;1.52;1.08;;;17.20;59.10;;;;;;6134474;23;20158;-81
2024/04/07 03:36:18;;;;;;;1.10;1.00;;;17.10;59.10;;;;;;6158950;23;20136;-81
2024/04/07 03:38:44;;;;;;;0.82;0.82;;;17.20;59.10;;;;;;6134273;23;20152;-81
2024/04/07 03:41:10;;;;;;;1.17;1.08;;;17.10;59.10;;;;;;6110107;23;20151;-81
2024/04/07 03:43:38;;;;;;;0.82;0.73;;;17.20;59.00;;;;;;6134204;23;20132;-81
2024/04/07 03:46:04;;;;;;;1.08;0.90;;;17.20;59.10;;;;;;6109456;23;20250;-81
2024/04/07 03:48:31;;;;;;;0.90;0.70;;;17.20;59.10;;;;;;6159378;23;20143;-81
2024/04/07 03:50:57;;;;;;;1.33;1.08;;;17.10;59.00;;;;;;6110204;23;20210;-80
2024/04/07 03:53:26;;;;;;;1.50;1.10;;;17.20;59.10;;;;;;6134932;23;20135;-81
2024/04/07 03:55:52;;;;;;;1.52;1.02;;;17.20;59.10;;;;;;6133846;23;20177;-81
2024/04/07 03:58:18;;;;;;;1.13;0.98;;;17.10;59.00;;;;;;6134110;23;20507;-80
2024/04/07 04:00:43;;;;;;;1.27;0.90;;;17.10;58.90;;;;;;6134415;23;20463;-81
2024/04/07 04:03:13;;;;;;;0.90;0.90;;;17.20;59.10;;;;;;6134480;23;20162;-81
2024/04/07 04:05:39;;;;;;;1.02;0.93;;;17.10;59.00;;;;;;6084652;23;20634;-81
2024/04/07 04:08:05;;;;;;;1.00;0.90;;;17.20;59.00;;;;;;6159123;23;20136;-81
2024/04/07 04:10:32;;;;;;;1.20;0.90;;;17.20;59.10;;;;;;6159033;23;20132;-81
2024/04/07 04:12:57;;;;;;;1.10;1.00;;;17.20;59.20;;;;;;6109754;23;20151;-81
2024/04/07 04:15:24;;;;;;;0.93;0.82;;;17.20;59.10;;;;;;6110423;23;20494;-80
2024/04/07 04:17:49;;;;;;;1.10;1.00;;;17.20;59.10;;;;;;6134119;23;20159;-81
2024/04/07 04:20:16;;;;;;;1.10;1.00;;;17.20;59.10;;;;;;6158721;23;20598;-81
2024/04/07 04:22:43;;;;;;;1.45;1.10;;;17.10;59.20;;;;;;6160355;23;20294;-81
2024/04/07 04:25:09;;;;;;;1.00;0.88;;;17.10;59.10;;;;;;6109669;23;20234;-81
2024/04/07 04:27:36;;;;;;;1.25;1.08;;;17.10;59.10;;;;;;6158657;23;20136;-81
2024/04/07 04:30:05;;;;;;;0.82;0.77;;;17.20;59.10;;;;;;6159001;23;20587;-81
2024/04/07 04:32:32;;;;;;;1.25;1.08;;;17.20;59.10;;;;;;6158842;23;20222;-81
2024/04/07 04:34:57;;;;;;;0.95;0.85;;;17.10;59.00;;;;;;6158684;23;20140;-80
2024/04/07 04:37:24;;;;;;;1.00;0.90;;;17.10;59.00;;;;;;6159121;23;20131;-80
2024/04/07 04:39:51;;;;;;;1.10;0.80;;;17.10;59.00;;;;;;6108666;23;20160;-80
2024/04/07 04:42:16;;;;;;;0.93;0.80;;;17.10;59.00;;;;;;6157277;23;20540;-81
2024/04/07 04:44:42;;;;;;;1.13;0.90;;;17.10;58.90;;;;;;6132418;23;20194;-80
2024/04/07 04:47:08;;;;;;;1.20;1.10;;;17.20;59.10;;;;;;6132871;23;20131;-80
2024/04/07 04:49:35;;;;;;;1.23;0.90;;;17.20;59.00;;;;;;6132560;23;20171;-81
2024/04/07 04:52:03;;;;;;;1.00;0.85;;;17.10;59.00;;;;;;6157121;23;20147;-81
2024/04/07 04:54:29;;;;;;;1.10;1.00;;;17.10;59.00;;;;;;6132037;23;20579;-81
2024/04/07 04:56:56;;;;;;;1.13;0.90;;;17.10;59.10;;;;;;6157445;23;20135;-81
2024/04/07 04:59:22;;;;;;;1.40;1.00;;;17.10;59.00;;;;;;6132546;23;20174;-81
2024/04/07 05:01:50;;;;;;;1.10;1.00;;;17.10;59.10;;;;;;6132394;23;20151;-81
2024/04/07 05:04:18;;;;;;;1.20;1.00;;;17.20;59.10;;;;;;6132335;23;20169;-81
2024/04/07 05:06:45;;;;;;;1.65;1.20;;;17.10;59.10;;;;;;6132398;23;20159;-81
2024/04/07 05:09:12;;;;;;;1.17;1.05;;;17.10;59.20;;;;;;6157453;23;20147;-81
2024/04/07 05:11:41;;;;;;;1.35;1.10;;;17.00;59.10;;;;;;6108120;23;20598;-81
2024/04/07 05:14:09;;;;;;;1.10;0.90;;;17.10;59.20;;;;;;6132034;23;20490;-80
2024/04/07 05:16:37;;;;;;;1.60;1.17;;;17.10;59.20;;;;;;6107248;23;20598;-80
2024/04/07 05:19:04;;;;;;;1.85;1.10;;;17.20;59.10;;;;;;6133047;23;20167;-81
2024/04/07 05:21:33;;;;;;;1.58;1.10;;;17.10;59.00;;;;;;6133164;23;20154;-81
2024/04/07 05:24:02;;;;;;;1.33;1.10;;;17.20;59.00;;;;;;6133185;23;20155;-81
2024/04/07 05:26:27;;;;;;;1.20;1.10;;;17.10;59.00;;;;;;6108340;23;20167;-80
2024/04/07 05:28:53;;;;;;;1.42;1.23;;;17.20;59.00;;;;;;6108066;23;20163;-80
2024/04/07 05:31:21;;;;;;;1.40;1.17;;;17.20;59.10;;;;;;6107991;23;20487;-81
2024/04/07 05:33:49;;;;;;;1.40;1.10;;;17.20;59.20;;;;;;6157236;23;20131;-81
2024/04/07 05:36:15;;;;;;;1.13;1.02;;;17.10;59.00;;;;;;6158087;23;20135;-81
2024/04/07 05:38:42;;;;;;;1.23;1.13;;;17.10;59.10;;;;;;6134222;23;20147;-81
2024/04/07 05:41:09;;;;;;;1.23;1.10;;;17.10;59.10;;;;;;6132744;23;20162;-81
2024/04/07 05:43:35;;;;;;;1.55;1.17;;;17.10;58.90;;;;;;6133584;23;20144;-81
2024/04/07 05:46:03;;;;;;;1.27;1.15;;;17.10;59.10;;;;;;6133143;23;20248;-80
2024/04/07 05:48:29;;;;;;;1.33;1.00;;;17.10;59.00;;;;;;6133885;23;20132;-81
2024/04/07 05:50:56;;;;;;;1.17;0.98;;;17.20;59.00;;;;;;6157546;23;20147;-81
2024/04/07 05:53:22;;;;;;;0.98;0.98;;;17.10;59.00;;;;;;6159076;23;20187;-81
2024/04/07 05:55:48;;;;;;;2.03;1.20;;;17.10;59.10;;;;;;6108508;23;20152;-81
2024/04/07 05:58:14;;;;;;;1.35;1.10;;;17.10;59.10;;;;;;6109117;23;20230;-81
2024/04/07 06:00:40;;;;;;;0.95;0.90;;;17.20;59.10;;;;;;6109965;23;20154;-81
2024/04/07 06:03:06;;;;;;;1.42;1.00;;;17.20;59.10;;;;;;6159161;23;20140;-80
2024/04/07 06:05:35;;;;;;;1.25;1.15;;;17.20;59.00;;;;;;6133559;23;20191;-82
2024/04/07 06:08:01;;;;;;;1.30;1.20;;;17.20;59.00;;;;;;6108807;23;20152;-81
2024/04/07 06:10:26;;;;;;;1.80;1.40;;;17.20;59.10;;;;;;6133062;23;20595;-81
2024/04/07 06:12:56;;;;;;;1.80;1.08;;;17.10;59.00;;;;;;6156523;23;20142;-81
2024/04/07 06:15:24;;;;;;;1.10;1.00;;;17.20;58.90;;;;;;6130993;23;20179;-81
2024/04/07 06:17:50;;;;;;;1.83;1.10;;;17.10;58.90;;;;;;6156039;23;20147;-81
2024/04/07 06:20:16;;;;;;;1.67;1.20;;;17.20;59.00;;;;;;6131915;23;20218;-81
2024/04/07 06:22:42;;;;;;;1.48;1.20;;;17.20;58.90;;;;;;6131975;23;20147;-80
2024/04/07 06:25:13;;;;;;;1.60;1.10;;;17.20;58.90;;;;;;6131334;23;20172;-81
2024/04/07 06:27:39;;;;;;;1.30;1.10;;;17.20;59.00;;;;;;6106258;23;20152;-80
2024/04/07 06:30:10;;;;;;;2.15;1.35;;;17.20;59.00;;;;;;6106992;23;20150;-81
2024/04/07 06:32:37;;;;;;;1.35;1.20;;;17.20;58.90;;;;;;6106142;23;20536;-81
2024/04/07 06:35:03;;;;;;;1.25;1.10;;;17.20;58.90;;;;;;6131771;23;20146;-81
2024/04/07 06:37:28;;;;;;;1.20;1.10;;;17.20;58.90;;;;;;6131448;23;20467;-81
2024/04/07 06:39:56;;;;;;;1.15;1.05;;;17.20;59.00;;;;;;6108635;23;20150;-81
2024/04/07 06:42:27;;;;;;;1.30;1.10;;;17.10;59.00;;;;;;6109023;23;20203;-81
2024/04/07 06:44:53;;;;;;;1.83;1.17;;;17.10;59.10;;;;;;6104647;23;20219;-81
2024/04/07 06:47:20;;;;;;;1.73;1.15;;;17.20;59.00;;;;;;6136717;23;20132;-81
2024/04/07 06:49:54;;;;;;;1.40;1.00;;;17.20;58.90;;;;;;6138643;23;20127;-82
2024/04/07 06:52:21;;;;;;;1.65;1.23;;;17.20;58.90;;;;;;6114047;23;20142;-81
2024/04/07 06:54:49;;;;;;;1.10;1.00;;;17.30;58.90;;;;;;6114490;23;20175;-81
2024/04/07 06:57:16;;;;;;;2.13;1.42;;;17.20;58.90;;;;;;6111190;23;20147;-81
2024/04/07 06:59:41;;;;;;;1.40;1.25;;;17.30;58.70;;;;;;6112188;23;20143;-81
2024/04/07 07:02:13;;;;;;;1.98;1.38;;;17.30;58.50;;;;;;6136353;23;20641;-81
2024/04/07 07:04:39;;;;;;;1.95;1.45;;;17.40;58.50;;;;;;6114468;23;20557;-82
2024/04/07 07:07:11;;;;;;;2.00;1.05;;;17.50;58.50;;;;;;6165295;23;20585;-81
2024/04/07 07:09:37;;;;;;;1.50;1.27;;;17.50;58.10;;;;;;6136889;23;20159;-79
2024/04/07 07:12:05;;;;;;;4.10;1.20;;;17.60;58.20;;;;;;6141121;23;20191;-79
2024/04/07 07:14:30;;;;;;;2.60;1.30;;;17.70;57.90;;;;;;6116922;23;20149;-81
2024/04/07 07:16:57;;;;;;;4.25;1.23;;;17.70;57.80;;;;;;6115714;23;20183;-79
2024/04/07 07:19:26;;;;;;;1.52;1.30;;;17.80;57.70;;;;;;6114851;23;20613;-80
2024/04/07 07:21:53;;;;;;;1.88;1.20;;;17.80;57.70;;;;;;6109389;23;20156;-79
2024/04/07 07:24:20;;;;;;;2.58;1.10;;;17.70;57.60;;;;;;6108476;23;20162;-80
2024/04/07 07:26:46;;;;;;;2.15;1.40;;;17.70;57.70;;;;;;6111638;23;20220;-81
2024/04/07 07:29:18;;;;;;;1.80;1.40;;;17.80;57.60;;;;;;6109559;23;20148;-79
2024/04/07 07:31:44;;;;;;;1.63;1.10;;;17.80;57.70;;;;;;6134591;23;20567;-80
2024/04/07 07:34:14;;;;;;;1.58;1.10;;;17.70;57.90;;;;;;6108921;23;20159;-82
2024/04/07 07:36:40;;;;;;;2.55;1.38;;;17.70;57.80;;;;;;6135497;23;20175;-82
2024/04/07 07:39:09;;;;;;;1.42;1.30;;;17.70;57.70;;;;;;6113530;23;20155;-81
2024/04/07 07:41:34;;;;;;;1.55;1.00;;;17.70;57.80;;;;;;6108550;23;20152;-81
2024/04/07 07:44:01;;;;;;;2.28;1.27;;;17.70;57.80;;;;;;6131324;23;20147;-81
2024/04/07 07:46:27;;;;;;;1.70;1.20;;;17.70;57.90;;;;;;6129700;23;20244;-81
2024/04/07 07:48:55;;;;;;;2.28;1.50;;;17.70;57.90;;;;;;6105535;23;20156;-81
2024/04/07 07:51:29;;;;;;;3.80;1.50;;;17.70;58.00;;;;;;6111028;23;20148;-80
2024/04/07 07:53:58;;;;;;;1.83;1.15;;;17.70;58.30;;;;;;6109148;23;20238;-80
2024/04/07 07:56:30;;;;;;;3.17;1.40;;;17.80;57.90;;;;;;6132266;23;20160;-81
2024/04/07 07:58:57;;;;;;;4.50;1.50;;;17.80;58.00;;;;;;6146342;23;20151;-80
2024/04/07 08:01:25;;;;;;;4.28;1.30;;;17.80;58.00;;;;;;6140556;23;20147;-81
2024/04/07 08:03:50;;;;;;;5.28;1.30;;;17.90;57.90;;;;;;6115966;23;20430;-80
2024/04/07 08:06:16;;;;;;;6.55;1.30;;;17.80;58.10;;;;;;6136366;23;20176;-81
2024/04/07 08:08:42;;;;;;;6.35;1.75;;;17.80;58.40;;;;;;6138132;23;20137;-80
2024/04/07 08:11:13;;;;;;;5.97;1.50;;;17.90;58.20;;;;;;6117095;23;20139;-80
2024/04/07 08:13:43;;;;;;;5.28;1.40;;;17.90;58.00;;;;;;6110138;23;20156;-80
2024/04/07 08:16:14;;;;;;;8.40;1.67;;;18.00;57.90;;;;;;6065734;23;20160;-79
2024/04/07 08:18:41;;;;;;;3.15;1.27;;;18.00;57.80;;;;;;6086929;23;20218;-81
2024/04/07 08:21:07;;;;;;;4.53;1.35;;;18.00;57.70;;;;;;6114649;23;20156;-79
2024/04/07 08:23:45;;;;;;;5.50;1.30;;;18.00;57.80;;;;;;6115519;23;20155;-79
2024/04/07 08:26:11;;;;;;;2.22;1.10;;;18.00;57.90;;;;;;6066370;23;20274;-80
2024/04/07 08:28:37;;;;;;;4.65;1.30;;;17.90;57.90;;;;;;6089350;23;20144;-79
2024/04/07 08:31:03;;;;;;;6.15;1.60;;;17.90;58.00;;;;;;6089202;23;20169;-81
2024/04/07 08:33:31;;;;;;;4.20;1.50;;;18.00;57.90;;;;;;6093031;23;20673;-81
2024/04/07 08:35:58;;;;;;;4.05;1.92;;;18.00;58.00;;;;;;6118249;23;20160;-81
2024/04/07 08:38:29;;;;;;;4.03;1.70;;;18.00;58.20;;;;;;6098700;23;20155;-81
2024/04/07 08:40:59;;;;;;;6.78;1.58;;;18.00;58.30;;;;;;6120172;23;20650;-81
2024/04/07 08:43:26;;;;;;;5.13;1.30;;;18.00;58.30;;;;;;6145045;23;20135;-79
2024/04/07 08:45:57;;;;;;;6.03;1.58;;;18.10;58.40;;;;;;6145436;23;20214;-80
2024/04/07 08:48:24;;;;;;;5.97;1.60;;;18.10;58.90;;;;;;6114647;23;20148;-84
2024/04/07 08:50:52;;;;;;;2.97;1.67;;;18.10;58.50;;;;;;6135170;23;20235;-79
2024/04/07 08:53:20;;;;;;;7.57;1.63;;;18.20;58.50;;;;;;6114754;23;20147;-80
2024/04/07 08:55:46;;;;;;;5.05;1.33;;;18.20;58.80;;;;;;6139342;23;20131;-81
2024/04/07 08:58:14;;;;;;;7.10;1.50;;;18.20;58.30;;;;;;6142219;23;20154;-81
2024/04/07 09:01:18;;;;;;;4.97;1.77;;;18.30;58.40;;;;;;6077805;23;20224;-81
2024/04/07 09:07:20;;;;;;;3.53;1.60;;;18.20;58.40;;;;;;5988058;23;20168;-81
2024/04/07 09:09:46;;;;;;;3.10;1.50;;;18.20;58.00;;;;;;5965322;24;20158;-81
2024/04/07 09:12:15;;;;;;;4.30;1.48;;;18.20;58.10;;;;;;5990845;24;20185;-81
2024/04/07 09:14:46;;;;;;;6.32;1.60;;;18.20;58.20;;;;;;5967536;24;20155;-81
2024/04/07 09:17:13;;;;;;;7.90;1.45;;;18.20;58.30;;;;;;5990558;24;20631;-81
2024/04/07 09:19:39;;;;;;;6.50;1.30;;;18.20;58.30;;;;;;5944577;24;20212;-81
2024/04/07 09:22:06;;;;;;;2.70;1.67;;;18.10;58.30;;;;;;5968543;24;20242;-81
2024/04/07 09:24:38;;;;;;;7.30;1.50;;;18.10;58.30;;;;;;5969573;24;20639;-80
2024/04/07 09:27:06;;;;;;;9.90;1.83;;;18.10;58.30;;;;;;5967213;24;20180;-81
2024/04/07 09:29:34;;;;;;;3.65;1.40;;;18.10;58.40;;;;;;5966549;24;20148;-80
2024/04/07 09:32:04;;;;;;;6.18;1.45;;;18.10;58.20;;;;;;5990013;24;20261;-81
2024/04/07 09:34:35;;;;;;;4.68;1.58;;;18.10;58.20;;;;;;5967509;24;20639;-82
2024/04/07 09:37:04;;;;;;;4.32;1.65;;;18.10;58.40;;;;;;5955139;23;20598;-81
2024/04/07 09:39:31;;;;;;;5.38;1.63;;;18.10;58.40;;;;;;6025787;23;20594;-82
2024/04/07 09:42:01;;;;;;;3.97;1.95;;;18.10;58.40;;;;;;6024795;23;20152;-80
2024/04/07 09:44:34;;;;;;;6.53;1.60;;;18.10;58.20;;;;;;6109994;23;20194;-81
2024/04/07 09:47:06;;;;;;;2.95;1.55;;;18.00;58.20;;;;;;6113761;23;20502;-82
2024/04/07 09:49:39;;;;;;;6.05;1.65;;;18.10;58.20;;;;;;6162662;23;20155;-81
2024/04/07 09:52:05;;;;;;;5.10;1.73;;;18.10;58.30;;;;;;6163097;23;20128;-81
2024/04/07 09:54:40;;;;;;;3.08;1.35;;;18.10;58.20;;;;;;6113257;23;20151;-81
2024/04/07 09:57:18;;;;;;;4.15;1.50;;;18.10;58.20;;;;;;6116920;23;20174;-82
2024/04/07 09:59:45;;;;;;;5.60;1.58;;;18.10;58.40;;;;;;6118551;23;20167;-81
2024/04/07 10:02:12;;;;;;;3.88;1.50;;;18.10;58.50;;;;;;6118297;23;20495;-81
2024/04/07 10:04:41;;;;;;;5.43;1.20;;;18.10;58.40;;;;;;6167640;23;20160;-81
2024/04/07 10:07:07;;;;;;;5.53;1.40;;;18.10;58.40;;;;;;6119310;23;20155;-81
2024/04/07 10:09:34;;;;;;;6.65;1.83;;;18.10;58.30;;;;;;6107580;23;20153;-81
2024/04/07 10:12:01;;;;;;;4.28;1.65;;;18.00;58.20;;;;;;6084905;23;20177;-81
2024/04/07 10:14:38;;;;;;;7.15;1.40;;;18.10;58.20;;;;;;6059957;23;20152;-81
2024/04/07 10:17:11;;;;;;;4.00;1.55;;;18.10;58.30;;;;;;6081177;23;20169;-81
2024/04/07 10:19:44;;;;;;;3.75;1.30;;;18.10;58.30;;;;;;6008555;23;20163;-82
2024/04/07 10:22:12;;;;;;;2.15;1.38;;;18.10;58.40;;;;;;6057091;23;20151;-82
2024/04/07 10:24:40;;;;;;;5.85;1.40;;;18.10;58.40;;;;;;6055826;23;20653;-82
2024/04/07 10:27:09;;;;;;;2.55;1.50;;;18.10;58.40;;;;;;6054576;23;20184;-81
2024/04/07 10:29:39;;;;;;;3.60;1.10;;;18.10;58.50;;;;;;6080547;23;20148;-81
2024/04/07 10:32:25;;;;;;;1.58;1.20;;;18.10;58.40;;;;;;6061622;23;20176;-81
2024/04/07 10:35:03;;;;;;;2.55;1.30;;;18.10;58.40;;;;;;6083694;23;20429;-81
2024/04/07 10:37:30;;;;;;;5.32;1.30;;;18.10;58.30;;;;;;6035839;23;20152;-80
2024/04/07 10:39:56;;;;;;;4.53;1.23;;;18.10;58.40;;;;;;6079411;23;20179;-80
2024/04/07 10:42:22;;;;;;;2.50;1.23;;;18.10;58.40;;;;;;6118759;23;20144;-80
2024/04/07 10:44:55;;;;;;;4.05;1.50;;;18.10;58.50;;;;;;6119023;23;20202;-80
2024/04/07 10:47:22;;;;;;;2.15;1.30;;;18.10;58.40;;;;;;6120799;23;20158;-80
2024/04/07 10:49:48;;;;;;;3.25;1.20;;;18.10;58.40;;;;;;6144013;23;20226;-79
2024/04/07 10:52:17;;;;;;;3.53;1.13;;;18.10;58.50;;;;;;6119732;23;20161;-79
2024/04/07 10:54:43;;;;;;;2.25;1.20;;;18.10;58.50;;;;;;6137575;23;20144;-80
2024/04/07 10:57:12;;;;;;;2.15;1.20;;;18.10;58.40;;;;;;6111581;23;20484;-80
2024/04/07 10:59:38;;;;;;;1.90;1.50;;;18.10;58.50;;;;;;6134747;23;20160;-81
2024/04/07 11:02:08;;;;;;;4.43;1.40;;;18.10;58.40;;;;;;6135475;23;20168;-80
2024/04/07 11:04:35;;;;;;;1.95;1.52;;;18.10;58.50;;;;;;6110331;23;20152;-80
2024/04/07 11:07:07;;;;;;;1.58;1.20;;;18.10;58.50;;;;;;6109617;23;20168;-81
2024/04/07 11:09:36;;;;;;;1.80;1.15;;;18.10;58.50;;;;;;6086488;23;20156;-81
2024/04/07 11:12:04;;;;;;;2.72;1.30;;;18.10;59.10;;;;;;6111244;23;20223;-80
2024/04/07 11:14:31;;;;;;;5.00;1.17;;;18.10;58.60;;;;;;6135624;23;20155;-80
2024/04/07 11:17:06;;;;;;;1.77;1.23;;;18.10;58.70;;;;;;6134336;23;20251;-80
2024/04/07 11:19:37;;;;;;;2.38;1.10;;;18.10;58.60;;;;;;6062090;23;20183;-82
2024/04/07 11:22:04;;;;;;;1.98;1.25;;;18.10;58.60;;;;;;6110211;23;20152;-80
2024/04/07 11:24:31;;;;;;;3.67;1.33;;;18.10;58.60;;;;;;6112723;23;20148;-80
2024/04/07 11:26:59;;;;;;;3.17;0.95;;;18.20;58.80;;;;;;6117197;23;20255;-81
2024/04/07 11:29:30;;;;;;;1.30;1.20;;;18.10;58.70;;;;;;6143779;23;20154;-80
2024/04/07 11:32:02;;;;;;;1.83;1.23;;;18.10;58.80;;;;;;6118175;23;20151;-80
2024/04/07 11:34:33;;;;;;;1.92;1.05;;;18.10;58.80;;;;;;6118215;23;20151;-81
2024/04/07 11:37:00;;;;;;;2.83;1.00;;;18.20;58.90;;;;;;6169246;23;20127;-80
2024/04/07 11:39:30;;;;;;;1.48;0.93;;;18.10;58.70;;;;;;6142234;23;20599;-81
2024/04/07 11:41:56;;;;;;;2.85;1.00;;;18.10;58.70;;;;;;6101487;23;20164;-82
2024/04/07 11:44:22;;;;;;;2.40;0.90;;;18.10;58.80;;;;;;6077497;23;20191;-81
2024/04/07 11:46:48;;;;;;;1.90;1.00;;;18.10;58.90;;;;;;6078424;23;20179;-80
2024/04/07 11:49:13;;;;;;;3.03;1.40;;;18.10;58.80;;;;;;6078849;23;20160;-81
2024/04/07 11:51:39;;;;;;;2.90;1.00;;;18.10;58.90;;;;;;6079020;23;20168;-80
2024/04/07 11:54:12;;;;;;;4.05;1.10;;;18.10;58.90;;;;;;6054644;23;20156;-81
2024/04/07 11:56:39;;;;;;;8.05;1.40;;;18.10;58.90;;;;;;6078415;23;20182;-82
2024/04/07 11:59:05;;;;;;;4.05;1.00;;;18.10;58.70;;;;;;6078975;23;20464;-82
2024/04/07 12:01:31;;;;;;;3.85;1.20;;;18.10;58.70;;;;;;6103233;23;20140;-81
2024/04/07 12:03:58;;;;;;;1.58;0.93;;;18.10;58.70;;;;;;6054118;23;20268;-82
2024/04/07 12:06:23;;;;;;;2.78;1.35;;;18.20;58.70;;;;;;6101867;23;20274;-81
2024/04/07 12:08:49;;;;;;;1.60;1.27;;;18.20;58.70;;;;;;6053841;23;20198;-81
2024/04/07 12:11:15;;;;;;;2.85;1.20;;;18.30;58.70;;;;;;6078929;23;20156;-82
2024/04/07 12:13:41;;;;;;;2.15;1.00;;;18.20;58.60;;;;;;6079760;23;20152;-81
2024/04/07 12:16:11;;;;;;;1.10;0.90;;;18.20;58.60;;;;;;6102337;23;20140;-81
2024/04/07 12:18:36;;;;;;;1.52;0.90;;;18.10;58.70;;;;;;6053289;23;20156;-81
2024/04/07 12:21:04;;;;;;;0.80;0.80;;;18.30;58.80;;;;;;6054595;23;20167;-81
2024/04/07 12:23:30;;;;;;;1.27;0.82;;;18.20;58.70;;;;;;6079293;23;20195;-81
2024/04/07 12:25:59;;;;;;;1.23;1.08;;;18.20;58.70;;;;;;6132710;23;20186;-81
2024/04/07 12:28:26;;;;;;;1.00;0.90;;;18.10;58.60;;;;;;6107453;23;20158;-80
2024/04/07 12:30:53;;;;;;;1.65;0.88;;;18.20;58.60;;;;;;6110020;23;20155;-81
2024/04/07 12:33:20;;;;;;;4.30;1.20;;;18.20;58.70;;;;;;6110411;23;20152;-81
2024/04/07 12:35:53;;;;;;;6.15;1.05;;;18.20;58.80;;;;;;6112146;23;20180;-81
2024/04/07 12:38:23;;;;;;;6.80;1.60;;;18.20;58.90;;;;;;6119747;23;20226;-81
2024/04/07 12:40:51;;;;;;;8.40;1.30;;;18.20;59.00;;;;;;6119514;23;20159;-81
2024/04/07 12:43:17;;;;;;;1.48;1.00;;;18.10;58.90;;;;;;6143152;23;20160;-81
2024/04/07 12:45:43;;;;;;;7.72;1.30;;;18.20;59.00;;;;;;6165217;23;20187;-80
2024/04/07 12:48:19;;;;;;;6.93;1.30;;;18.30;59.30;;;;;;6165809;23;20234;-80
2024/04/07 12:50:45;;;;;;;4.93;1.33;;;18.30;59.60;;;;;;6117831;23;20234;-81
2024/04/07 12:53:12;;;;;;;5.10;1.08;;;18.30;59.20;;;;;;6118419;23;20155;-81
2024/04/07 12:55:38;;;;;;;6.78;1.20;;;18.20;59.00;;;;;;6169641;23;20151;-80
2024/04/07 12:58:06;;;;;;;5.22;1.58;;;18.30;58.90;;;;;;6119822;23;20167;-81